Time;durP1;ratioP1;P1;durP2;ratioP2;P2;SDS_P1;SDS_P2;PMS_P1;PMS_P2;Temp;Humidity;BMP_temperature;BMP_pressure;BME280_temperature;BME280_humidity;BME280_pressure;Samples;Min_cycle;Max_cycle;Signal;HPM_P1;HPM_P2
2021/12/18 00:02:12;;;;;;;11.82;8.57;;;;;;;7.06;87.82;103976.66;5043203;28;20428;-79
2021/12/18 00:04:38;;;;;;;13.90;8.93;;;;;;;7.04;87.90;103976.56;5055895;28;20025;-79
2021/12/18 00:07:04;;;;;;;10.55;8.50;;;;;;;7.04;87.85;103973.03;5032149;28;20408;-83
2021/12/18 00:09:32;;;;;;;12.15;8.90;;;;;;;7.02;87.92;103964.25;5038844;28;20025;-80
2021/12/18 00:11:58;;;;;;;14.10;8.23;;;;;;;6.99;87.02;103962.38;5020456;28;20259;-79
2021/12/18 00:14:24;;;;;;;12.40;8.60;;;;;;;6.98;87.61;103959.69;5048814;28;20033;-81
2021/12/18 00:16:49;;;;;;;14.05;9.38;;;;;;;6.96;87.88;103961.34;5022971;28;20045;-80
2021/12/18 00:19:23;;;;;;;11.55;7.65;;;;;;;6.93;88.04;103967.28;5037100;28;20040;-79
2021/12/18 00:21:48;;;;;;;10.82;7.75;;;;;;;6.92;87.96;103957.66;5024048;28;20067;-72
2021/12/18 00:24:14;;;;;;;14.98;7.97;;;;;;;6.90;88.06;103957.56;5052622;28;20096;-73
2021/12/18 00:26:39;;;;;;;11.38;7.55;;;;;;;6.88;88.06;103951.41;5008354;28;20033;-72
2021/12/18 00:29:05;;;;;;;13.68;7.07;;;;;;;6.87;88.07;103949.59;5050735;28;20062;-73
2021/12/18 00:31:31;;;;;;;9.75;6.82;;;;;;;6.85;88.13;103951.25;5030332;28;20488;-73
2021/12/18 00:33:56;;;;;;;9.93;7.53;;;;;;;6.84;88.30;103944.22;5017062;28;20043;-72
2021/12/18 00:36:22;;;;;;;12.02;6.63;;;;;;;6.83;88.23;103939.81;5033213;28;20085;-73
2021/12/18 00:38:47;;;;;;;9.85;6.65;;;;;;;6.85;87.82;103939.88;5034527;28;20041;-73
2021/12/18 00:41:26;;;;;;;10.32;7.45;;;;;;;6.84;88.28;103933.78;5050671;28;20111;-73
2021/12/18 00:44:04;;;;;;;11.77;6.90;;;;;;;6.84;87.89;103938.09;5048725;28;20028;-73
2021/12/18 00:46:38;;;;;;;8.70;6.20;;;;;;;6.84;88.27;103938.09;5071168;28;20032;-73
2021/12/18 00:49:06;;;;;;;9.68;6.05;;;;;;;6.82;88.41;103940.63;5056589;28;20028;-73
2021/12/18 00:51:32;;;;;;;8.68;6.18;;;;;;;6.80;87.70;103939.66;5055021;28;20036;-73
2021/12/18 00:53:57;;;;;;;13.80;6.40;;;;;;;6.80;88.01;103931.84;5046178;28;20029;-72
2021/12/18 00:56:23;;;;;;;9.23;6.32;;;;;;;6.81;88.13;103927.50;5058039;28;20097;-73
2021/12/18 00:58:50;;;;;;;9.70;5.72;;;;;;;6.78;88.44;103933.47;5033418;28;20040;-73
2021/12/18 01:01:21;;;;;;;9.10;6.90;;;;;;;6.77;88.17;103926.47;5052996;28;20020;-73
2021/12/18 01:03:48;;;;;;;9.25;6.63;;;;;;;6.77;88.30;103934.28;5034656;28;20033;-73
2021/12/18 01:06:15;;;;;;;10.00;6.88;;;;;;;6.75;87.91;103930.69;5029459;28;20067;-72
2021/12/18 01:08:41;;;;;;;10.02;6.85;;;;;;;6.75;88.46;103920.25;5053567;28;20035;-72
2021/12/18 01:13:45;;;;;;;10.70;6.85;;;;;;;6.73;88.29;103917.56;5050170;28;20045;-72
2021/12/18 01:16:18;;;;;;;8.68;6.72;;;;;;;6.73;88.56;103922.78;5035776;28;20577;-72
2021/12/18 01:24:11;;;;;;;12.95;8.15;;;;;;;6.71;88.45;103916.59;5059163;28;20075;-82
2021/12/18 01:26:38;;;;;;;14.93;8.18;;;;;;;6.71;88.25;103913.06;5067098;28;20057;-81
2021/12/18 01:29:03;;;;;;;12.10;8.60;;;;;;;6.70;89.00;103914.78;5034659;28;20055;-84
2021/12/18 01:31:29;;;;;;;13.05;8.73;;;;;;;6.69;88.28;103917.31;5033734;28;20067;-84
2021/12/18 01:33:55;;;;;;;11.23;8.13;;;;;;;6.69;88.39;103917.31;5055329;28;20055;-82
2021/12/18 01:36:21;;;;;;;12.63;7.68;;;;;;;6.68;88.55;103920.75;5047254;28;20036;-81
2021/12/18 01:38:47;;;;;;;16.05;9.32;;;;;;;6.68;88.39;103925.94;5038192;28;20036;-82
2021/12/18 01:41:14;;;;;;;13.43;8.07;;;;;;;6.66;88.59;103927.59;5039252;28;20036;-81
2021/12/18 01:51:15;;;;;;;10.88;7.95;;;;;;;6.66;88.90;103928.47;4984409;28;20859;-85
2021/12/18 01:52:39;;;;;;;11.35;7.78;;;;;;;6.64;89.04;103937.94;5047854;28;20071;-83
2021/12/18 01:55:05;;;;;;;13.00;8.93;;;;;;;6.64;88.81;103944.84;5067355;28;20021;-82
2021/12/18 01:57:31;;;;;;;13.75;8.43;;;;;;;6.64;88.72;103942.22;5049169;28;20037;-83
2021/12/18 02:00:35;;;;;;;15.45;8.48;;;;;;;6.65;88.92;103944.94;5006675;28;20032;-86
2021/12/18 02:03:02;;;;;;;12.70;7.80;;;;;;;6.64;88.94;103940.53;5069325;28;20181;-86
2021/12/18 02:05:27;;;;;;;12.20;8.55;;;;;;;6.64;88.57;103955.25;5025584;28;20511;-83
2021/12/18 02:07:53;;;;;;;11.90;8.23;;;;;;;6.65;88.72;103951.84;5020060;28;20056;-83
2021/12/18 02:10:24;;;;;;;13.70;9.77;;;;;;;6.64;88.88;103953.56;5035901;28;20473;-84
2021/12/18 02:12:59;;;;;;;19.17;9.80;;;;;;;6.63;88.69;103948.28;5037626;28;20151;-84
2021/12/18 02:20:54;;;;;;;11.18;7.05;;;;;;;6.62;89.39;103944.75;5029151;28;20112;-82
2021/12/18 02:23:20;;;;;;;15.30;8.80;;;;;;;6.61;89.47;103940.38;5008344;28;20143;-84
2021/12/18 02:25:46;;;;;;;11.35;8.07;;;;;;;6.61;88.88;103942.97;5019813;28;20037;-83
2021/12/18 02:28:19;;;;;;;13.55;9.18;;;;;;;6.61;89.24;103942.06;5034166;28;20469;-83
2021/12/18 02:30:47;;;;;;;17.02;9.45;;;;;;;6.61;88.73;103937.78;5017799;28;20131;-82
2021/12/18 02:33:15;;;;;;;11.63;7.88;;;;;;;6.58;89.24;103930.69;5029859;28;20029;-83
2021/12/18 02:35:47;;;;;;;11.52;6.95;;;;;;;6.59;88.32;103932.47;5002378;28;20095;-84
2021/12/18 02:41:25;;;;;;;11.70;7.90;;;;;;;6.56;88.79;103926.19;5038807;28;20025;-82
2021/12/18 02:43:51;;;;;;;11.48;7.47;;;;;;;6.53;89.02;103931.25;5004058;28;20370;-74
2021/12/18 02:46:19;;;;;;;12.25;8.15;;;;;;;6.52;89.09;103932.97;5034003;28;20028;-74
2021/12/18 02:48:47;;;;;;;12.43;8.15;;;;;;;6.51;89.28;103925.06;5015899;28;20043;-74
2021/12/18 02:51:17;;;;;;;12.00;8.30;;;;;;;6.49;89.34;103924.94;5043115;28;20385;-75
2021/12/18 02:53:46;;;;;;;11.90;8.65;;;;;;;6.47;89.27;103918.78;5023763;28;20032;-74
2021/12/18 02:56:12;;;;;;;14.98;9.52;;;;;;;6.46;88.87;103910.88;5041991;28;20041;-73
2021/12/18 02:58:45;;;;;;;12.95;7.95;;;;;;;6.43;89.44;103909.00;5032499;28;20040;-84
2021/12/18 03:01:13;;;;;;;15.18;8.88;;;;;;;6.41;89.78;103911.50;5034034;28;20075;-81
2021/12/18 03:03:40;;;;;;;12.77;8.30;;;;;;;6.38;89.96;103898.31;5027454;28;20489;-82
2021/12/18 03:27:23;;;;;;;11.70;7.30;;;;;;;6.36;89.63;103896.44;5032162;28;20072;-82
2021/12/18 03:29:51;;;;;;;13.60;8.50;;;;;;;6.35;89.84;103895.56;5033762;28;20369;-82
2021/12/18 03:32:16;;;;;;;12.55;6.97;;;;;;;6.36;90.12;103893.84;5033872;28;20021;-83
2021/12/18 03:34:42;;;;;;;11.05;7.38;;;;;;;6.38;89.29;103895.72;5050503;28;20037;-81
2021/12/18 03:37:08;;;;;;;9.68;6.95;;;;;;;6.39;89.59;103897.53;5012743;28;20033;-80
2021/12/18 03:39:35;;;;;;;11.52;7.68;;;;;;;6.37;89.68;103890.44;5033302;28;20128;-83
2021/12/18 03:42:01;;;;;;;10.93;6.95;;;;;;;6.37;90.12;103900.84;5030075;28;20025;-74
2021/12/18 03:44:27;;;;;;;11.05;6.70;;;;;;;6.37;89.18;103900.84;5014943;28;20033;-74
2021/12/18 03:46:53;;;;;;;12.10;8.13;;;;;;;6.38;89.96;103902.66;5028552;28;20553;-75
2021/12/18 03:49:20;;;;;;;11.27;7.30;;;;;;;6.37;89.55;103901.72;5012572;28;20036;-75
2021/12/18 03:51:46;;;;;;;11.65;8.13;;;;;;;6.37;89.73;103900.84;5018557;28;20072;-74
2021/12/18 03:54:11;;;;;;;10.93;8.15;;;;;;;6.36;89.84;103896.44;4996608;28;20049;-75
2021/12/18 03:56:37;;;;;;;13.15;8.63;;;;;;;6.35;89.99;103900.78;5033126;28;20029;-75
2021/12/18 03:59:03;;;;;;;11.40;8.23;;;;;;;6.36;89.78;103901.66;5008836;28;20037;-75
2021/12/18 04:01:28;;;;;;;12.90;8.45;;;;;;;6.36;90.29;103899.03;5019292;28;20044;-75
2021/12/18 04:03:54;;;;;;;13.10;8.30;;;;;;;6.38;89.98;103905.25;5004621;28;20029;-76
2021/12/18 04:06:19;;;;;;;12.65;8.38;;;;;;;6.38;89.59;103892.22;5019264;28;20061;-75
2021/12/18 04:08:45;;;;;;;11.88;7.57;;;;;;;6.39;90.28;103901.81;5035507;28;20481;-76
2021/12/18 04:11:10;;;;;;;15.32;9.00;;;;;;;6.37;89.70;103903.44;5004093;28;20033;-76
2021/12/18 04:13:36;;;;;;;13.65;8.55;;;;;;;6.35;89.57;103895.56;5016930;28;20234;-77
2021/12/18 04:16:02;;;;;;;14.15;8.80;;;;;;;6.34;90.07;103898.09;5037080;28;20053;-75
2021/12/18 04:18:28;;;;;;;16.38;9.93;;;;;;;6.35;90.00;103895.56;5037883;28;20028;-75
2021/12/18 04:20:54;;;;;;;13.27;8.55;;;;;;;6.35;90.45;103897.25;5056090;28;20028;-75
2021/12/18 04:23:19;;;;;;;15.85;10.57;;;;;;;6.33;90.02;103893.69;5036482;28;20119;-75
2021/12/18 04:25:45;;;;;;;15.23;9.43;;;;;;;6.33;90.53;103906.69;5068966;28;20779;-76
2021/12/18 04:28:10;;;;;;;17.55;10.55;;;;;;;6.30;90.23;103906.53;5034328;28;20037;-76
2021/12/18 04:30:36;;;;;;;14.52;9.80;;;;;;;6.30;90.75;103901.31;5052929;28;20025;-76
2021/12/18 04:33:02;;;;;;;15.63;9.77;;;;;;;6.32;90.75;103915.31;5069063;28;20040;-76
2021/12/18 04:35:27;;;;;;;14.48;10.25;;;;;;;6.31;91.10;103913.53;5041235;28;20031;-75
2021/12/18 04:37:53;;;;;;;16.42;9.60;;;;;;;6.30;90.89;103906.53;5055281;28;20484;-75
2021/12/18 04:40:25;;;;;;;18.60;11.02;;;;;;;6.29;90.92;103910.81;5019232;28;20037;-76
2021/12/18 04:42:50;;;;;;;14.65;9.40;;;;;;;6.30;91.09;103911.75;5053501;28;20039;-75
2021/12/18 04:45:16;;;;;;;19.70;11.00;;;;;;;6.31;90.74;103914.44;5035193;28;20040;-75
2021/12/18 04:47:42;;;;;;;16.95;11.13;;;;;;;6.29;91.04;103912.53;5017388;28;20515;-75
2021/12/18 04:50:08;;;;;;;17.52;11.23;;;;;;;6.27;91.16;103907.25;5033869;28;20079;-74
2021/12/18 04:52:33;;;;;;;21.35;11.82;;;;;;;6.26;91.67;103908.06;5069642;28;20024;-74
2021/12/18 04:54:59;;;;;;;17.65;10.45;;;;;;;6.28;91.86;103913.34;5031916;28;20054;-75
2021/12/18 04:57:24;;;;;;;19.70;12.15;;;;;;;6.27;91.46;103919.38;5033108;28;20498;-74
2021/12/18 04:59:50;;;;;;;21.85;12.35;;;;;;;6.27;91.22;103916.78;5042370;28;20028;-75
2021/12/18 05:02:20;;;;;;;17.92;10.50;;;;;;;6.27;91.38;103919.38;5038671;28;20123;-74
2021/12/18 05:04:45;;;;;;;15.48;10.88;;;;;;;6.26;91.46;103920.19;5047450;28;20028;-74
2021/12/18 05:07:11;;;;;;;14.10;9.38;;;;;;;6.25;91.47;103921.91;5038562;28;20043;-75
2021/12/18 05:09:39;;;;;;;18.42;9.82;;;;;;;6.24;91.51;103923.59;5054410;28;20037;-75
2021/12/18 05:12:04;;;;;;;13.98;9.63;;;;;;;6.23;91.14;103921.84;5062400;28;20048;-73
2021/12/18 05:14:30;;;;;;;14.57;8.30;;;;;;;6.22;90.54;103924.31;5051037;28;20107;-74
2021/12/18 05:16:55;;;;;;;17.65;10.45;;;;;;;6.21;91.33;103923.44;5048821;28;20063;-74
2021/12/18 05:19:21;;;;;;;17.02;9.23;;;;;;;6.20;91.46;103926.84;5007145;28;20041;-75
2021/12/18 05:21:47;;;;;;;14.48;9.15;;;;;;;6.19;91.59;103916.34;5009927;28;20053;-74
2021/12/18 05:24:13;;;;;;;12.73;8.48;;;;;;;6.19;91.63;103924.16;5033253;28;20060;-74
2021/12/18 05:26:39;;;;;;;14.23;8.70;;;;;;;6.18;91.49;103922.38;5000999;28;20057;-75
2021/12/18 05:29:05;;;;;;;15.00;8.68;;;;;;;6.17;91.72;103918.88;5001752;28;20053;-74
2021/12/18 05:31:30;;;;;;;15.82;9.63;;;;;;;6.17;92.07;103920.56;5001604;28;20045;-73
2021/12/18 05:33:59;;;;;;;12.43;8.80;;;;;;;6.18;91.77;103923.28;5005842;28;20035;-74
2021/12/18 05:39:05;;;;;;;13.98;9.75;;;;;;;6.19;91.43;103926.75;5051845;28;20037;-74
2021/12/18 05:41:30;;;;;;;16.17;9.55;;;;;;;6.19;91.80;103927.69;5033335;28;20029;-74
2021/12/18 05:43:56;;;;;;;14.60;9.55;;;;;;;6.19;92.06;103926.75;5000956;28;20036;-74
2021/12/18 05:46:22;;;;;;;17.17;9.57;;;;;;;6.20;91.88;103928.56;5017452;28;20043;-74
2021/12/18 05:48:47;;;;;;;14.77;9.65;;;;;;;6.19;91.67;103925.06;5030508;28;20025;-73
2021/12/18 05:51:13;;;;;;;17.33;10.27;;;;;;;6.19;91.71;103927.69;5012739;28;20060;-74
2021/12/18 05:53:38;;;;;;;13.90;9.57;;;;;;;6.20;91.67;103926.84;5010352;28;20049;-74
2021/12/18 05:56:04;;;;;;;15.65;10.02;;;;;;;6.21;91.78;103922.56;5022501;28;20389;-74
2021/12/18 05:58:29;;;;;;;13.95;9.55;;;;;;;6.20;92.20;103919.03;4996306;28;20041;-74
2021/12/18 06:00:54;;;;;;;13.30;10.18;;;;;;;6.21;91.86;103922.56;5042996;28;20041;-74
2021/12/18 06:03:21;;;;;;;18.20;10.15;;;;;;;6.21;92.32;103927.75;5000301;28;20024;-73
2021/12/18 06:05:47;;;;;;;16.98;10.35;;;;;;;6.20;92.35;103921.63;5001070;28;20063;-73
2021/12/18 06:08:14;;;;;;;18.92;10.20;;;;;;;6.21;91.86;103925.16;5029941;28;20539;-74
2021/12/18 06:10:40;;;;;;;13.77;8.77;;;;;;;6.21;92.02;103931.25;5031300;28;20043;-74
2021/12/18 06:13:05;;;;;;;17.35;9.05;;;;;;;6.22;92.34;103922.63;5033908;28;20025;-75
2021/12/18 06:15:31;;;;;;;16.15;10.70;;;;;;;6.23;92.42;103916.63;5015907;28;20144;-75
2021/12/18 06:17:58;;;;;;;15.32;10.07;;;;;;;6.23;92.12;103914.03;5032052;28;20033;-74
2021/12/18 06:20:25;;;;;;;15.48;9.38;;;;;;;6.25;92.36;103916.72;5014625;28;20389;-75
2021/12/18 06:22:50;;;;;;;15.57;9.77;;;;;;;6.26;92.61;103909.78;5016122;28;20029;-75
2021/12/18 06:25:16;;;;;;;18.05;11.23;;;;;;;6.25;92.26;103908.88;5012610;28;20032;-75
2021/12/18 06:27:41;;;;;;;15.13;10.00;;;;;;;6.24;92.99;103909.69;5013365;28;20076;-74
2021/12/18 06:30:09;;;;;;;14.73;10.20;;;;;;;6.24;92.70;103902.75;4989220;28;20061;-75
2021/12/18 06:32:35;;;;;;;15.25;9.50;;;;;;;6.26;92.42;103909.78;4997898;28;20045;-74
2021/12/18 06:35:01;;;;;;;16.35;8.80;;;;;;;6.24;92.50;103907.97;5033553;28;20033;-74
2021/12/18 06:37:26;;;;;;;14.18;9.95;;;;;;;6.27;92.53;103911.56;5005831;28;20175;-75
2021/12/18 06:39:53;;;;;;;15.57;8.27;;;;;;;6.28;92.48;103909.06;5032753;28;20020;-83
2021/12/18 06:42:18;;;;;;;16.02;8.32;;;;;;;6.29;91.98;103916.03;5034599;28;20049;-83
2021/12/18 06:44:44;;;;;;;13.35;8.55;;;;;;;6.29;92.41;103915.16;5048121;28;20046;-83
2021/12/18 06:47:29;;;;;;;13.35;7.72;;;;;;;6.32;92.19;103920.53;4988280;28;20049;-86
2021/12/18 06:50:18;;;;;;;16.05;9.32;;;;;;;6.33;92.31;103917.13;5014404;28;20020;-83
2021/12/18 06:52:43;;;;;;;13.38;8.40;;;;;;;6.31;92.12;103922.25;5029220;28;20036;-84
2021/12/18 06:55:09;;;;;;;15.02;9.57;;;;;;;6.31;91.86;103913.53;5041248;28;20066;-83
2021/12/18 06:57:34;;;;;;;14.65;8.85;;;;;;;6.31;92.59;103908.34;5033989;28;20036;-83
2021/12/18 07:03:23;;;;;;;16.30;8.77;;;;;;;6.33;92.15;103919.72;5034616;28;20032;-84
2021/12/18 07:05:49;;;;;;;19.90;10.73;;;;;;;6.31;92.38;103914.44;4998630;28;20090;-83
2021/12/18 07:08:14;;;;;;;15.88;10.00;;;;;;;6.32;92.36;103910.09;4998635;28;20033;-82
2021/12/18 07:11:01;;;;;;;13.80;7.93;;;;;;;6.35;92.31;103915.47;4998400;28;20057;-83
2021/12/18 07:13:28;;;;;;;17.02;8.82;;;;;;;6.35;92.48;103915.47;5000447;28;20056;-85
2021/12/18 07:15:53;;;;;;;14.23;8.02;;;;;;;6.34;91.60;103912.00;5035136;28;20127;-83
2021/12/18 07:18:19;;;;;;;20.90;9.57;;;;;;;6.35;92.05;103910.28;5000499;28;20749;-82
2021/12/18 07:20:44;;;;;;;16.25;8.82;;;;;;;6.34;92.27;103916.31;4985967;28;20017;-85
2021/12/18 07:23:10;;;;;;;17.20;10.60;;;;;;;6.36;92.27;103917.28;4996676;28;20021;-85
2021/12/18 07:25:35;;;;;;;17.20;11.13;;;;;;;6.36;92.52;103918.16;5030618;28;20025;-82
2021/12/18 07:28:01;;;;;;;17.77;9.60;;;;;;;6.39;92.14;103918.38;5037942;28;20052;-81
2021/12/18 07:30:29;;;;;;;18.27;10.55;;;;;;;6.40;92.24;103927.06;5038248;28;20043;-83
2021/12/18 07:33:14;;;;;;;16.85;11.38;;;;;;;6.43;92.17;103914.19;5038484;28;20025;-85
2021/12/18 07:35:40;;;;;;;20.45;11.77;;;;;;;6.44;92.79;103926.41;5021663;28;20404;-81
2021/12/18 07:38:07;;;;;;;17.42;10.05;;;;;;;6.42;92.50;103917.59;5038408;28;20029;-83
2021/12/18 07:40:33;;;;;;;18.00;11.27;;;;;;;6.45;91.93;103917.81;5010971;28;20132;-85
2021/12/18 07:42:58;;;;;;;19.75;10.30;;;;;;;6.47;92.20;103920.50;5018740;28;20112;-82
2021/12/18 07:45:44;;;;;;;17.90;10.05;;;;;;;6.52;92.94;103934.66;5018584;28;20080;-83
2021/12/18 07:48:09;;;;;;;20.17;10.52;;;;;;;6.47;92.77;103926.59;5037137;28;20040;-82
2021/12/18 07:50:35;;;;;;;19.48;11.40;;;;;;;6.46;92.47;103931.72;5020747;28;20025;-82
2021/12/18 07:53:00;;;;;;;18.35;11.27;;;;;;;6.44;92.13;103926.41;5021101;28;20029;-81
2021/12/18 07:55:28;;;;;;;16.88;10.48;;;;;;;6.46;92.01;103929.09;5002063;28;20128;-81
2021/12/18 07:57:54;;;;;;;18.75;10.32;;;;;;;6.47;92.94;103930.91;5015811;28;20034;-82
2021/12/18 08:00:21;;;;;;;18.70;10.63;;;;;;;6.48;91.96;103927.47;5052168;28;20476;-82
2021/12/18 08:02:47;;;;;;;16.75;9.80;;;;;;;6.49;91.85;103930.16;5039688;28;20033;-78
2021/12/18 08:05:14;;;;;;;11.45;7.68;;;;;;;6.49;91.50;103924.94;5051474;28;20468;-78
2021/12/18 08:07:40;;;;;;;14.90;8.30;;;;;;;6.47;92.14;103934.41;5020600;28;20043;-78
2021/12/18 08:10:07;;;;;;;12.27;7.82;;;;;;;6.47;92.30;103929.19;5034750;28;20043;-78
2021/12/18 08:12:32;;;;;;;12.18;7.25;;;;;;;6.49;91.39;103924.06;5019384;28;20396;-78
2021/12/18 08:14:58;;;;;;;13.98;7.53;;;;;;;6.49;91.58;103924.94;5034878;28;20025;-78
2021/12/18 08:17:27;;;;;;;12.80;7.55;;;;;;;6.50;91.97;103918.94;5029583;28;20057;-78
2021/12/18 08:19:52;;;;;;;12.23;7.18;;;;;;;6.54;92.05;103927.81;5046779;28;20033;-78
2021/12/18 08:22:18;;;;;;;13.52;7.90;;;;;;;6.52;91.38;103924.22;5044734;28;20156;-79
2021/12/18 08:24:44;;;;;;;12.60;7.57;;;;;;;6.54;92.32;103918.28;5050388;28;20120;-78
2021/12/18 08:27:09;;;;;;;12.30;7.80;;;;;;;6.51;91.14;103920.72;5037729;28;20033;-78
2021/12/18 08:29:35;;;;;;;13.95;8.10;;;;;;;6.53;91.67;103931.25;5055247;28;20056;-78
2021/12/18 08:32:03;;;;;;;13.50;7.68;;;;;;;6.56;91.90;103926.19;5031276;28;20036;-79
2021/12/18 08:39:32;;;;;;;11.52;6.65;;;;;;;6.58;92.17;103909.84;5071216;28;20056;-74
2021/12/18 08:41:59;;;;;;;9.75;6.30;;;;;;;6.62;91.45;103923.03;5038775;28;20028;-74
2021/12/18 08:44:25;;;;;;;12.75;7.03;;;;;;;6.66;91.74;103925.88;5041672;28;20028;-74
2021/12/18 08:46:50;;;;;;;11.88;6.47;;;;;;;6.67;91.74;103916.38;5075461;28;20035;-74
2021/12/18 08:49:16;;;;;;;10.70;5.88;;;;;;;6.68;91.76;103932.06;5041313;28;20035;-74
2021/12/18 08:51:43;;;;;;;8.63;4.82;;;;;;;6.66;91.25;103924.97;5069878;28;20024;-74
2021/12/18 08:54:08;;;;;;;8.55;4.78;;;;;;;6.64;91.05;103921.38;5057457;28;20423;-74
2021/12/18 08:56:34;;;;;;;10.70;5.10;;;;;;;6.62;91.52;103923.03;5056929;28;20518;-74
2021/12/18 08:59:00;;;;;;;9.38;5.43;;;;;;;6.59;91.13;103927.28;5056886;28;20036;-74
2021/12/18 09:01:29;;;;;;;8.60;4.80;;;;;;;6.59;91.14;103924.66;5074342;28;20375;-74
2021/12/18 09:03:55;;;;;;;7.90;4.85;;;;;;;6.61;90.87;103927.34;5057061;28;20387;-74
2021/12/18 09:06:22;;;;;;;8.20;5.22;;;;;;;6.62;91.17;103923.91;5074179;28;20039;-74
2021/12/18 09:08:48;;;;;;;9.40;5.35;;;;;;;6.64;91.86;103919.69;5073614;28;20204;-74
2021/12/18 09:11:14;;;;;;;10.80;5.80;;;;;;;6.66;91.55;103927.59;5057312;28;20025;-74
2021/12/18 09:13:39;;;;;;;7.13;4.07;;;;;;;6.67;91.44;103929.38;5058828;28;20055;-74
2021/12/18 09:16:06;;;;;;;8.75;4.20;;;;;;;6.66;91.99;103924.97;5074517;28;20062;-74
2021/12/18 09:18:32;;;;;;;9.73;4.43;;;;;;;6.67;91.35;103924.19;5057554;28;20154;-74
2021/12/18 09:20:57;;;;;;;6.25;3.97;;;;;;;6.68;91.33;103920.75;5038006;28;20062;-74
2021/12/18 09:23:26;;;;;;;6.45;4.13;;;;;;;6.70;91.56;103922.63;5068049;28;20037;-74
2021/12/18 09:25:52;;;;;;;7.57;3.35;;;;;;;6.73;91.58;103929.72;5073754;28;20032;-74
2021/12/18 09:28:18;;;;;;;5.80;3.53;;;;;;;6.75;91.94;103917.66;5057757;28;20039;-74
2021/12/18 09:30:44;;;;;;;8.27;3.83;;;;;;;6.78;91.80;103923.06;5072227;28;20031;-74
2021/12/18 09:33:13;;;;;;;8.07;4.13;;;;;;;6.80;91.57;103917.91;5056709;28;20028;-74
2021/12/18 09:35:39;;;;;;;8.38;3.83;;;;;;;6.81;91.08;103915.38;5072995;28;20056;-74
2021/12/18 09:38:04;;;;;;;6.25;2.83;;;;;;;6.81;90.93;103922.28;5056712;28;20492;-74
2021/12/18 09:40:30;;;;;;;4.05;2.67;;;;;;;6.80;90.29;103925.72;5040576;28;20156;-74
2021/12/18 09:42:56;;;;;;;4.75;2.97;;;;;;;6.79;90.34;103916.13;5062894;28;20032;-74
2021/12/18 09:45:23;;;;;;;4.00;2.33;;;;;;;6.80;91.09;103918.81;5071086;28;20170;-74
2021/12/18 09:47:48;;;;;;;8.65;3.83;;;;;;;6.83;90.46;103916.34;5072276;28;20031;-74
2021/12/18 09:50:16;;;;;;;8.88;4.10;;;;;;;6.82;90.96;103909.34;5056726;28;20031;-74
2021/12/18 09:52:42;;;;;;;4.57;3.15;;;;;;;6.83;90.64;103916.34;5059698;28;20498;-74
2021/12/18 09:55:08;;;;;;;8.30;3.10;;;;;;;6.82;90.71;103913.66;5040925;28;20029;-74
2021/12/18 09:57:35;;;;;;;4.97;2.60;;;;;;;6.80;90.50;103907.50;5063232;28;20127;-74
2021/12/18 10:00:01;;;;;;;7.93;3.47;;;;;;;6.81;90.60;103920.59;5068925;28;20027;-74
2021/12/18 10:02:26;;;;;;;4.00;3.25;;;;;;;6.75;90.36;103907.22;5046769;28;20198;-74
2021/12/18 10:04:52;;;;;;;6.95;3.10;;;;;;;6.76;90.62;103906.41;5053020;28;20043;-74
2021/12/18 10:07:23;;;;;;;4.05;2.60;;;;;;;6.78;90.85;103903.88;5062896;28;20157;-74
2021/12/18 10:09:56;;;;;;;4.00;2.28;;;;;;;6.78;90.14;103902.19;5068361;28;20161;-74
2021/12/18 10:12:30;;;;;;;2.90;1.67;;;;;;;6.77;89.83;103905.59;5065850;28;20164;-74
2021/12/18 10:15:02;;;;;;;4.03;2.35;;;;;;;6.77;90.33;103905.59;5071924;28;20012;-74
2021/12/18 10:17:33;;;;;;;3.00;2.00;;;;;;;6.75;89.45;103902.00;5072208;28;20035;-74
2021/12/18 10:20:20;;;;;;;3.33;2.20;;;;;;;6.78;89.80;103899.59;5070973;28;20016;-74
2021/12/18 10:22:58;;;;;;;2.30;1.77;;;;;;;6.78;89.61;103886.56;5067610;28;20097;-74
2021/12/18 10:25:27;;;;;;;4.30;1.88;;;;;;;6.73;90.16;103893.22;5071578;28;20043;-74
2021/12/18 10:28:07;;;;;;;2.88;2.03;;;;;;;6.75;89.56;103899.41;5070651;28;20481;-74
2021/12/18 10:30:33;;;;;;;3.90;2.08;;;;;;;6.71;88.16;103895.75;5071669;28;20028;-74
2021/12/18 10:33:01;;;;;;;4.15;2.92;;;;;;;6.71;88.96;103889.63;5071345;28;20035;-74
2021/12/18 10:35:59;;;;;;;4.68;2.08;;;;;;;6.81;89.33;103889.31;5070623;28;20094;-74
2021/12/18 10:38:52;;;;;;;5.22;2.85;;;;;;;6.83;89.54;103890.28;5037638;28;20498;-73
2021/12/18 10:41:26;;;;;;;4.57;2.50;;;;;;;6.88;88.61;103888.81;5070811;28;20035;-74
2021/12/18 10:44:18;;;;;;;2.83;1.75;;;;;;;6.92;88.50;103882.03;5067012;28;20031;-74
2021/12/18 10:46:45;;;;;;;3.20;1.70;;;;;;;6.86;88.24;103885.22;5077262;28;20036;-74
2021/12/18 10:49:16;;;;;;;5.00;3.20;;;;;;;6.88;89.09;103888.81;5072336;28;20109;-74
2021/12/18 10:51:45;;;;;;;4.90;3.45;;;;;;;6.89;89.29;103890.59;5068861;28;20450;-74
2021/12/18 10:54:24;;;;;;;6.50;3.38;;;;;;;6.90;89.12;103881.97;5071041;28;20207;-73
2021/12/18 10:56:56;;;;;;;5.30;4.07;;;;;;;6.89;88.77;103880.16;5072291;28;20367;-73
2021/12/18 10:59:31;;;;;;;6.20;4.18;;;;;;;6.89;89.75;103874.97;5054702;28;20051;-73
2021/12/18 11:02:01;;;;;;;6.13;4.35;;;;;;;6.83;89.19;103881.56;5072171;28;20024;-74
2021/12/18 11:04:31;;;;;;;;;;;;;;;6.88;89.07;103878.41;5071823;28;20111;-74
2021/12/18 11:06:58;;;;;;;5.78;3.90;;;;;;;6.75;89.74;103882.06;5063774;28;19927;-74
2021/12/18 11:09:45;;;;;;;4.28;3.08;;;;;;;6.68;89.79;103881.66;5087169;28;20027;-74
2021/12/18 11:15:02;;;;;;;7.95;3.63;;;;;;;6.62;89.67;103877.00;5018443;28;20032;-74
2021/12/18 11:17:27;;;;;;;5.60;3.55;;;;;;;6.62;90.02;103883.94;5038183;28;20039;-74
2021/12/18 11:19:54;;;;;;;3.50;2.63;;;;;;;6.64;89.66;103884.91;5038375;28;20024;-73
2021/12/18 11:22:20;;;;;;;4.05;2.70;;;;;;;6.65;89.84;103881.50;5071438;28;20106;-73
2021/12/18 11:25:00;;;;;;;4.57;3.50;;;;;;;6.61;88.82;103895.16;5036405;28;20031;-73
2021/12/18 11:27:26;;;;;;;4.97;3.88;;;;;;;6.62;89.54;103886.53;5069386;28;20024;-73
2021/12/18 11:30:10;;;;;;;3.55;3.10;;;;;;;6.62;89.58;103877.00;5047409;28;20073;-73
2021/12/18 11:32:42;;;;;;;6.68;3.90;;;;;;;6.60;89.96;103881.25;5071441;28;20024;-73
2021/12/18 11:35:11;;;;;;;6.30;4.03;;;;;;;6.65;90.12;103878.88;5071465;28;20024;-73
2021/12/18 11:37:59;;;;;;;6.30;4.40;;;;;;;6.69;89.31;103873.91;5068237;28;20028;-73
2021/12/18 11:40:30;;;;;;;6.60;4.38;;;;;;;6.67;90.43;103872.94;5070937;28;20078;-73
2021/12/18 11:42:56;;;;;;;8.05;4.18;;;;;;;6.71;89.86;103871.38;5055601;28;20545;-73
2021/12/18 11:45:31;;;;;;;6.65;4.05;;;;;;;6.71;89.98;103864.47;5071248;28;20074;-73
2021/12/18 11:47:59;;;;;;;5.22;3.45;;;;;;;6.70;90.13;103859.19;5065648;28;20047;-75
2021/12/18 11:50:31;;;;;;;4.05;3.08;;;;;;;6.63;90.11;103857.06;5054049;28;20446;-74
2021/12/18 11:53:13;;;;;;;5.32;4.03;;;;;;;6.58;89.96;103856.84;5060752;28;20036;-74
2021/12/18 11:55:53;;;;;;;3.83;2.72;;;;;;;6.58;90.87;103851.63;5052004;28;20024;-74
2021/12/18 11:58:27;;;;;;;4.93;3.33;;;;;;;6.54;90.22;103852.28;5068572;28;21192;-74
2021/12/18 12:01:05;;;;;;;6.70;3.97;;;;;;;6.52;90.14;103841.78;5070724;28;20031;-74
2021/12/18 12:03:54;;;;;;;4.95;3.28;;;;;;;6.46;89.56;103845.75;5074919;28;20020;-74
2021/12/18 12:06:26;;;;;;;4.10;2.90;;;;;;;6.42;90.15;103844.66;5074481;28;20024;-74
2021/12/18 12:09:14;;;;;;;5.18;3.78;;;;;;;6.45;90.59;103844.88;5069931;28;20032;-74
2021/12/18 12:12:04;;;;;;;3.78;3.05;;;;;;;6.47;90.56;103840.63;5073689;28;20106;-74
2021/12/18 12:14:32;;;;;;;4.35;3.25;;;;;;;6.44;90.20;103835.25;5070156;28;20024;-74
2021/12/18 12:17:05;;;;;;;3.88;2.88;;;;;;;6.45;90.16;103839.66;5073654;28;20039;-74
2021/12/18 12:19:33;;;;;;;3.55;3.03;;;;;;;6.45;89.87;103834.44;5073769;28;20032;-74
2021/12/18 12:22:00;;;;;;;4.55;3.05;;;;;;;6.44;89.97;103831.72;5075160;28;20463;-75
2021/12/18 12:24:31;;;;;;;6.75;3.22;;;;;;;6.38;89.95;103830.59;5074725;28;20486;-75
2021/12/18 12:27:25;;;;;;;12.10;3.75;;;;;;;6.42;90.20;103839.47;5069127;28;20032;-75
2021/12/18 12:29:51;;;;;;;4.82;3.28;;;;;;;6.41;89.93;103832.47;5063171;28;20052;-74
2021/12/18 12:32:20;;;;;;;3.15;2.85;;;;;;;6.39;89.46;103832.41;5056953;28;20122;-75